sensor_id;sensor_type;location;lat;lon;timestamp;pressure;altitude;pressure_sealevel;temperature;humidity
61573;BME280;47465;43.094;12.434;2023-03-15T00:01:17;97405.00;;;8.24;100.00
61573;BME280;47465;43.094;12.434;2023-03-15T00:03:45;97423.47;;;8.48;100.00
61573;BME280;47465;43.094;12.434;2023-03-15T00:06:12;97405.22;;;8.40;100.00
61573;BME280;47465;43.094;12.434;2023-03-15T00:08:39;97415.28;;;8.54;100.00
61573;BME280;47465;43.094;12.434;2023-03-15T00:11:05;97406.63;;;8.50;100.00
61573;BME280;47465;43.094;12.434;2023-03-15T00:13:31;97409.81;;;8.58;100.00
61573;BME280;47465;43.094;12.434;2023-03-15T00:15:59;97420.91;;;8.68;100.00
61573;BME280;47465;43.094;12.434;2023-03-15T00:18:25;97408.94;;;8.58;100.00
61573;BME280;47465;43.094;12.434;2023-03-15T00:20:53;97420.16;;;8.64;100.00
61573;BME280;47465;43.094;12.434;2023-03-15T00:23:19;97406.97;;;8.63;100.00
61573;BME280;47465;43.094;12.434;2023-03-15T00:25:45;97388.69;;;8.57;100.00
61573;BME280;47465;43.094;12.434;2023-03-15T00:28:12;97391.19;;;8.60;100.00
61573;BME280;47465;43.094;12.434;2023-03-15T00:30:38;97392.84;;;8.62;100.00
61573;BME280;47465;43.094;12.434;2023-03-15T00:33:05;97400.56;;;8.69;100.00
61573;BME280;47465;43.094;12.434;2023-03-15T00:35:32;97421.31;;;8.79;100.00
61573;BME280;47465;43.094;12.434;2023-03-15T00:37:59;97405.00;;;8.68;100.00
61573;BME280;47465;43.094;12.434;2023-03-15T00:40:25;97411.91;;;8.72;100.00
61573;BME280;47465;43.094;12.434;2023-03-15T00:42:51;97388.41;;;8.63;100.00
61573;BME280;47465;43.094;12.434;2023-03-15T00:45:18;97388.59;;;8.58;100.00
61573;BME280;47465;43.094;12.434;2023-03-15T00:47:48;97393.06;;;8.58;100.00
61573;BME280;47465;43.094;12.434;2023-03-15T00:50:14;97405.38;;;8.59;100.00
61573;BME280;47465;43.094;12.434;2023-03-15T00:52:40;97388.38;;;8.42;100.00
61573;BME280;47465;43.094;12.434;2023-03-15T00:55:11;97401.16;;;8.31;100.00
61573;BME280;47465;43.094;12.434;2023-03-15T00:57:38;97391.25;;;8.36;100.00
61573;BME280;47465;43.094;12.434;2023-03-15T01:00:06;97416.56;;;8.43;100.00
61573;BME280;47465;43.094;12.434;2023-03-15T01:02:33;97403.56;;;8.37;100.00
61573;BME280;47465;43.094;12.434;2023-03-15T01:04:59;97413.78;;;8.48;100.00
61573;BME280;47465;43.094;12.434;2023-03-15T01:07:26;97392.59;;;8.25;100.00
61573;BME280;47465;43.094;12.434;2023-03-15T01:09:52;97400.41;;;8.28;100.00
61573;BME280;47465;43.094;12.434;2023-03-15T01:12:19;97401.88;;;8.35;100.00
61573;BME280;47465;43.094;12.434;2023-03-15T01:14:45;97420.59;;;8.54;100.00
61573;BME280;47465;43.094;12.434;2023-03-15T01:17:11;97402.78;;;8.35;100.00
61573;BME280;47465;43.094;12.434;2023-03-15T01:19:37;97413.03;;;8.45;100.00
61573;BME280;47465;43.094;12.434;2023-03-15T01:22:02;97385.84;;;8.39;100.00
61573;BME280;47465;43.094;12.434;2023-03-15T01:24:28;97402.13;;;8.52;100.00
61573;BME280;47465;43.094;12.434;2023-03-15T01:26:54;97385.47;;;8.49;100.00
61573;BME280;47465;43.094;12.434;2023-03-15T01:29:22;97412.25;;;8.63;100.00
61573;BME280;47465;43.094;12.434;2023-03-15T01:31:47;97408.44;;;8.70;100.00
61573;BME280;47465;43.094;12.434;2023-03-15T01:34:13;97388.16;;;8.69;100.00
61573;BME280;47465;43.094;12.434;2023-03-15T01:36:39;97378.34;;;8.71;100.00
61573;BME280;47465;43.094;12.434;2023-03-15T01:39:05;97377.69;;;8.66;100.00
61573;BME280;47465;43.094;12.434;2023-03-15T01:41:31;97381.59;;;8.57;100.00
61573;BME280;47465;43.094;12.434;2023-03-15T01:43:57;97376.53;;;8.51;100.00
61573;BME280;47465;43.094;12.434;2023-03-15T01:46:26;97386.28;;;8.51;100.00
61573;BME280;47465;43.094;12.434;2023-03-15T01:48:56;97411.41;;;8.62;100.00
61573;BME280;47465;43.094;12.434;2023-03-15T01:51:28;97389.19;;;8.45;100.00
61573;BME280;47465;43.094;12.434;2023-03-15T01:53:59;97402.63;;;8.38;100.00
61573;BME280;47465;43.094;12.434;2023-03-15T01:56:27;97368.50;;;8.09;100.00
61573;BME280;47465;43.094;12.434;2023-03-15T01:58:56;97367.06;;;8.00;100.00
61573;BME280;47465;43.094;12.434;2023-03-15T02:01:26;97387.22;;;8.04;100.00
61573;BME280;47465;43.094;12.434;2023-03-15T02:03:54;97375.38;;;7.91;100.00
61573;BME280;47465;43.094;12.434;2023-03-15T02:06:23;97380.09;;;7.82;100.00
61573;BME280;47465;43.094;12.434;2023-03-15T02:08:52;97410.78;;;7.88;100.00
61573;BME280;47465;43.094;12.434;2023-03-15T02:11:21;97402.31;;;7.78;100.00
61573;BME280;47465;43.094;12.434;2023-03-15T02:13:49;97380.69;;;7.67;100.00
61573;BME280;47465;43.094;12.434;2023-03-15T02:16:16;97403.66;;;7.67;100.00
61573;BME280;47465;43.094;12.434;2023-03-15T02:18:44;97384.66;;;7.55;100.00
61573;BME280;47465;43.094;12.434;2023-03-15T02:21:19;97398.13;;;7.49;100.00
61573;BME280;47465;43.094;12.434;2023-03-15T02:23:56;97393.84;;;7.45;100.00
61573;BME280;47465;43.094;12.434;2023-03-15T02:26:29;97397.78;;;7.58;100.00
61573;BME280;47465;43.094;12.434;2023-03-15T02:28:59;97384.63;;;7.57;100.00
61573;BME280;47465;43.094;12.434;2023-03-15T02:31:26;97409.06;;;7.64;100.00
61573;BME280;47465;43.094;12.434;2023-03-15T02:33:52;97423.56;;;7.77;100.00
61573;BME280;47465;43.094;12.434;2023-03-15T02:36:23;97399.13;;;7.70;100.00
61573;BME280;47465;43.094;12.434;2023-03-15T02:38:51;97416.03;;;7.90;100.00
61573;BME280;47465;43.094;12.434;2023-03-15T02:41:21;97399.50;;;7.83;100.00
61573;BME280;47465;43.094;12.434;2023-03-15T02:43:51;97416.56;;;7.98;100.00
61573;BME280;47465;43.094;12.434;2023-03-15T02:46:19;97418.09;;;8.05;100.00
61573;BME280;47465;43.094;12.434;2023-03-15T02:48:47;97428.97;;;8.19;100.00
61573;BME280;47465;43.094;12.434;2023-03-15T02:51:18;97431.34;;;8.27;100.00
61573;BME280;47465;43.094;12.434;2023-03-15T02:53:45;97415.75;;;8.19;100.00
61573;BME280;47465;43.094;12.434;2023-03-15T02:56:11;97425.25;;;8.25;100.00
61573;BME280;47465;43.094;12.434;2023-03-15T02:58:39;97428.69;;;8.27;100.00
61573;BME280;47465;43.094;12.434;2023-03-15T03:01:05;97426.91;;;8.28;100.00
61573;BME280;47465;43.094;12.434;2023-03-15T03:03:32;97453.56;;;8.47;100.00
61573;BME280;47465;43.094;12.434;2023-03-15T03:05:58;97427.50;;;8.34;100.00
61573;BME280;47465;43.094;12.434;2023-03-15T03:08:24;97402.22;;;8.27;100.00
61573;BME280;47465;43.094;12.434;2023-03-15T03:10:49;97448.03;;;8.53;100.00
61573;BME280;47465;43.094;12.434;2023-03-15T03:13:15;97451.78;;;8.47;100.00
61573;BME280;47465;43.094;12.434;2023-03-15T03:15:42;97423.44;;;8.26;100.00
61573;BME280;47465;43.094;12.434;2023-03-15T03:18:10;97431.34;;;8.27;100.00
61573;BME280;47465;43.094;12.434;2023-03-15T03:20:37;97435.59;;;8.31;100.00
61573;BME280;47465;43.094;12.434;2023-03-15T03:23:03;97439.41;;;8.24;100.00
61573;BME280;47465;43.094;12.434;2023-03-15T03:25:31;97437.63;;;8.25;100.00
61573;BME280;47465;43.094;12.434;2023-03-15T03:27:57;97441.13;;;8.25;100.00
61573;BME280;47465;43.094;12.434;2023-03-15T03:30:23;97448.94;;;8.28;100.00
61573;BME280;47465;43.094;12.434;2023-03-15T03:32:49;97465.94;;;8.46;100.00
61573;BME280;47465;43.094;12.434;2023-03-15T03:35:15;97430.41;;;8.28;100.00
61573;BME280;47465;43.094;12.434;2023-03-15T03:37:43;97475.56;;;8.49;100.00
61573;BME280;47465;43.094;12.434;2023-03-15T03:40:10;97448.72;;;8.34;100.00
61573;BME280;47465;43.094;12.434;2023-03-15T03:42:37;97453.09;;;8.35;100.00
61573;BME280;47465;43.094;12.434;2023-03-15T03:45:03;97439.53;;;8.21;100.00
61573;BME280;47465;43.094;12.434;2023-03-15T03:47:29;97441.91;;;8.05;100.00
61573;BME280;47465;43.094;12.434;2023-03-15T03:49:55;97456.28;;;7.98;100.00
61573;BME280;47465;43.094;12.434;2023-03-15T03:52:21;97449.41;;;7.94;100.00
61573;BME280;47465;43.094;12.434;2023-03-15T03:54:48;97485.75;;;8.12;100.00
61573;BME280;47465;43.094;12.434;2023-03-15T03:57:14;97446.00;;;7.90;100.00
61573;BME280;47465;43.094;12.434;2023-03-15T03:59:40;97453.13;;;7.88;100.00
61573;BME280;47465;43.094;12.434;2023-03-15T04:02:06;97440.56;;;7.70;100.00
61573;BME280;47465;43.094;12.434;2023-03-15T04:04:32;97444.56;;;7.56;100.00
61573;BME280;47465;43.094;12.434;2023-03-15T04:06:58;97468.56;;;7.52;100.00
61573;BME280;47465;43.094;12.434;2023-03-15T04:09:23;97455.22;;;7.30;100.00
61573;BME280;47465;43.094;12.434;2023-03-15T04:11:51;97459.63;;;7.31;100.00
61573;BME280;47465;43.094;12.434;2023-03-15T04:14:17;97476.72;;;7.46;100.00
61573;BME280;47465;43.094;12.434;2023-03-15T04:16:43;97488.88;;;7.51;100.00
61573;BME280;47465;43.094;12.434;2023-03-15T04:19:09;97461.22;;;7.35;100.00
61573;BME280;47465;43.094;12.434;2023-03-15T04:21:37;97484.56;;;7.49;100.00
61573;BME280;47465;43.094;12.434;2023-03-15T04:24:03;97482.13;;;7.43;100.00
61573;BME280;47465;43.094;12.434;2023-03-15T04:26:29;97492.75;;;7.41;100.00
61573;BME280;47465;43.094;12.434;2023-03-15T04:28:57;97455.66;;;7.17;100.00
61573;BME280;47465;43.094;12.434;2023-03-15T04:31:24;97485.25;;;7.29;100.00
61573;BME280;47465;43.094;12.434;2023-03-15T04:33:51;97496.94;;;7.22;100.00
61573;BME280;47465;43.094;12.434;2023-03-15T04:36:17;97517.78;;;7.31;100.00
61573;BME280;47465;43.094;12.434;2023-03-15T04:38:44;97490.09;;;7.16;100.00
61573;BME280;47465;43.094;12.434;2023-03-15T04:41:11;97496.84;;;7.25;100.00
61573;BME280;47465;43.094;12.434;2023-03-15T04:43:37;97498.34;;;7.32;100.00
61573;BME280;47465;43.094;12.434;2023-03-15T04:46:05;97522.31;;;7.52;100.00
61573;BME280;47465;43.094;12.434;2023-03-15T04:48:31;97523.41;;;7.72;100.00
61573;BME280;47465;43.094;12.434;2023-03-15T04:50:57;97518.69;;;7.80;100.00
61573;BME280;47465;43.094;12.434;2023-03-15T04:53:23;97523.09;;;7.81;100.00
61573;BME280;47465;43.094;12.434;2023-03-15T04:55:48;97529.94;;;7.87;100.00
61573;BME280;47465;43.094;12.434;2023-03-15T04:58:15;97524.59;;;7.88;100.00
61573;BME280;47465;43.094;12.434;2023-03-15T05:00:41;97524.19;;;7.99;100.00
61573;BME280;47465;43.094;12.434;2023-03-15T05:03:09;97515.50;;;7.95;100.00
61573;BME280;47465;43.094;12.434;2023-03-15T05:05:35;97536.44;;;8.01;100.00
61573;BME280;47465;43.094;12.434;2023-03-15T05:08:00;97520.91;;;7.92;100.00
61573;BME280;47465;43.094;12.434;2023-03-15T05:10:26;97522.88;;;7.87;100.00
61573;BME280;47465;43.094;12.434;2023-03-15T05:12:54;97556.94;;;7.96;100.00
61573;BME280;47465;43.094;12.434;2023-03-15T05:15:20;97534.25;;;7.89;100.00
61573;BME280;47465;43.094;12.434;2023-03-15T05:17:46;97563.41;;;8.13;100.00
61573;BME280;47465;43.094;12.434;2023-03-15T05:20:15;97551.09;;;8.12;100.00
61573;BME280;47465;43.094;12.434;2023-03-15T05:22:41;97525.88;;;8.01;100.00
61573;BME280;47465;43.094;12.434;2023-03-15T05:25:08;97536.44;;;8.01;100.00
61573;BME280;47465;43.094;12.434;2023-03-15T05:27:35;97558.00;;;8.16;100.00
61573;BME280;47465;43.094;12.434;2023-03-15T05:30:01;97551.34;;;8.04;100.00
61573;BME280;47465;43.094;12.434;2023-03-15T05:32:27;97538.50;;;7.93;100.00
61573;BME280;47465;43.094;12.434;2023-03-15T05:34:53;97554.94;;;8.03;100.00
61573;BME280;47465;43.094;12.434;2023-03-15T05:37:21;97542.03;;;7.94;100.00
61573;BME280;47465;43.094;12.434;2023-03-15T05:39:47;97552.56;;;7.95;100.00
61573;BME280;47465;43.094;12.434;2023-03-15T05:42:13;97555.31;;;7.92;100.00
61573;BME280;47465;43.094;12.434;2023-03-15T05:44:39;97570.22;;;7.95;100.00
61573;BME280;47465;43.094;12.434;2023-03-15T05:47:05;97566.00;;;7.89;100.00
61573;BME280;47465;43.094;12.434;2023-03-15T05:49:31;97571.28;;;7.89;100.00
61573;BME280;47465;43.094;12.434;2023-03-15T05:51:57;97589.31;;;8.05;100.00
61573;BME280;47465;43.094;12.434;2023-03-15T05:54:24;97590.91;;;8.09;100.00
61573;BME280;47465;43.094;12.434;2023-03-15T05:56:50;97582.16;;;8.07;100.00
61573;BME280;47465;43.094;12.434;2023-03-15T05:59:16;97596.84;;;8.15;100.00
61573;BME280;47465;43.094;12.434;2023-03-15T06:01:42;97616.69;;;8.29;100.00
61573;BME280;47465;43.094;12.434;2023-03-15T06:04:08;97589.31;;;8.28;100.00
61573;BME280;47465;43.094;12.434;2023-03-15T06:06:34;97609.00;;;8.46;100.00
61573;BME280;47465;43.094;12.434;2023-03-15T06:09:00;97621.97;;;8.54;100.00
61573;BME280;47465;43.094;12.434;2023-03-15T06:11:27;97622.53;;;8.62;100.00
61573;BME280;47465;43.094;12.434;2023-03-15T06:13:53;97629.28;;;8.71;100.00
61573;BME280;47465;43.094;12.434;2023-03-15T06:16:19;97631.31;;;8.64;100.00
61573;BME280;47465;43.094;12.434;2023-03-15T06:18:45;97647.03;;;8.69;100.00
61573;BME280;47465;43.094;12.434;2023-03-15T06:21:11;97654.00;;;8.71;100.00
61573;BME280;47465;43.094;12.434;2023-03-15T06:23:36;97621.09;;;8.77;100.00
61573;BME280;47465;43.094;12.434;2023-03-15T06:26:02;97629.75;;;9.04;100.00
61573;BME280;47465;43.094;12.434;2023-03-15T06:28:30;97618.91;;;9.32;100.00
61573;BME280;47465;43.094;12.434;2023-03-15T06:30:55;97641.63;;;9.61;100.00
61573;BME280;47465;43.094;12.434;2023-03-15T06:33:21;97637.38;;;9.78;100.00
61573;BME280;47465;43.094;12.434;2023-03-15T06:35:48;97609.13;;;9.77;100.00
61573;BME280;47465;43.094;12.434;2023-03-15T06:38:14;97613.78;;;9.92;100.00
61573;BME280;47465;43.094;12.434;2023-03-15T06:40:40;97608.31;;;9.95;100.00
61573;BME280;47465;43.094;12.434;2023-03-15T06:43:06;97643.78;;;10.15;99.48
61573;BME280;47465;43.094;12.434;2023-03-15T06:45:34;97623.41;;;10.15;97.69
61573;BME280;47465;43.094;12.434;2023-03-15T06:48:00;97635.91;;;10.13;97.25
61573;BME280;47465;43.094;12.434;2023-03-15T06:50:25;97669.81;;;10.27;95.90
61573;BME280;47465;43.094;12.434;2023-03-15T06:52:51;97690.13;;;10.30;93.81
61573;BME280;47465;43.094;12.434;2023-03-15T06:55:17;97672.09;;;10.36;94.33
61573;BME280;47465;43.094;12.434;2023-03-15T06:57:43;97671.84;;;10.42;92.01
61573;BME280;47465;43.094;12.434;2023-03-15T07:00:10;97697.00;;;10.75;91.65
61573;BME280;47465;43.094;12.434;2023-03-15T07:02:38;97703.97;;;10.77;91.94
61573;BME280;47465;43.094;12.434;2023-03-15T07:05:05;97707.69;;;10.94;92.53
61573;BME280;47465;43.094;12.434;2023-03-15T07:07:31;97710.53;;;10.89;91.26
61573;BME280;47465;43.094;12.434;2023-03-15T07:09:57;97691.34;;;10.82;92.28
61573;BME280;47465;43.094;12.434;2023-03-15T07:12:22;97691.47;;;10.79;93.96
61573;BME280;47465;43.094;12.434;2023-03-15T07:14:48;97723.06;;;10.66;91.84
61573;BME280;47465;43.094;12.434;2023-03-15T07:17:14;97714.38;;;10.42;91.39
61573;BME280;47465;43.094;12.434;2023-03-15T07:19:42;97731.91;;;10.46;92.87
61573;BME280;47465;43.094;12.434;2023-03-15T07:22:08;97761.50;;;10.59;91.88
61573;BME280;47465;43.094;12.434;2023-03-15T07:24:34;97753.31;;;10.43;93.95
61573;BME280;47465;43.094;12.434;2023-03-15T07:26:59;97784.25;;;10.44;96.35
61573;BME280;47465;43.094;12.434;2023-03-15T07:29:25;97774.50;;;10.45;94.34
61573;BME280;47465;43.094;12.434;2023-03-15T07:31:51;97777.94;;;10.47;95.51
61573;BME280;47465;43.094;12.434;2023-03-15T07:34:17;97779.81;;;10.45;90.55
61573;BME280;47465;43.094;12.434;2023-03-15T07:36:44;97784.16;;;10.47;91.32
61573;BME280;47465;43.094;12.434;2023-03-15T07:39:10;97785.63;;;10.55;93.25
61573;BME280;47465;43.094;12.434;2023-03-15T07:41:36;97776.91;;;10.72;92.89
61573;BME280;47465;43.094;12.434;2023-03-15T07:44:02;97790.53;;;10.84;90.04
61573;BME280;47465;43.094;12.434;2023-03-15T07:46:28;97767.66;;;10.80;88.26
61573;BME280;47465;43.094;12.434;2023-03-15T07:48:53;97760.13;;;10.90;86.02
61573;BME280;47465;43.094;12.434;2023-03-15T07:51:19;97757.56;;;11.07;85.46
61573;BME280;47465;43.094;12.434;2023-03-15T07:53:47;97759.19;;;11.30;84.63
61573;BME280;47465;43.094;12.434;2023-03-15T07:56:16;97760.78;;;11.35;82.41
61573;BME280;47465;43.094;12.434;2023-03-15T07:58:42;97763.44;;;11.35;83.17
61573;BME280;47465;43.094;12.434;2023-03-15T08:01:08;97786.03;;;11.45;82.31
61573;BME280;47465;43.094;12.434;2023-03-15T08:03:34;97793.72;;;11.51;81.44
61573;BME280;47465;43.094;12.434;2023-03-15T08:06:00;97802.22;;;11.40;78.00
61573;BME280;47465;43.094;12.434;2023-03-15T08:08:26;97791.22;;;11.48;78.41
61573;BME280;47465;43.094;12.434;2023-03-15T08:10:53;97805.88;;;11.38;77.70
61573;BME280;47465;43.094;12.434;2023-03-15T08:13:20;97838.91;;;11.34;78.74
61573;BME280;47465;43.094;12.434;2023-03-15T08:15:46;97799.72;;;10.98;76.51
61573;BME280;47465;43.094;12.434;2023-03-15T08:18:12;97812.75;;;11.04;79.94
61573;BME280;47465;43.094;12.434;2023-03-15T08:20:38;97809.81;;;11.29;77.73
61573;BME280;47465;43.094;12.434;2023-03-15T08:23:04;97809.50;;;11.16;79.65
61573;BME280;47465;43.094;12.434;2023-03-15T08:25:30;97832.22;;;11.44;78.71
61573;BME280;47465;43.094;12.434;2023-03-15T08:27:57;97821.44;;;11.07;76.89
61573;BME280;47465;43.094;12.434;2023-03-15T08:30:23;97842.78;;;10.85;77.76
61573;BME280;47465;43.094;12.434;2023-03-15T08:32:49;97837.25;;;10.90;76.68
61573;BME280;47465;43.094;12.434;2023-03-15T08:35:18;97832.50;;;11.38;74.35
61573;BME280;47465;43.094;12.434;2023-03-15T08:37:45;97848.28;;;11.61;73.60
61573;BME280;47465;43.094;12.434;2023-03-15T08:40:13;97844.94;;;10.98;72.08
61573;BME280;47465;43.094;12.434;2023-03-15T08:42:39;97862.75;;;10.96;72.74
61573;BME280;47465;43.094;12.434;2023-03-15T08:45:08;97853.94;;;11.14;73.92
61573;BME280;47465;43.094;12.434;2023-03-15T08:47:35;97862.84;;;11.54;70.71
61573;BME280;47465;43.094;12.434;2023-03-15T08:50:01;97859.03;;;11.79;68.60
61573;BME280;47465;43.094;12.434;2023-03-15T08:52:30;97860.06;;;11.37;70.47
61573;BME280;47465;43.094;12.434;2023-03-15T08:54:56;97866.41;;;11.92;71.00
61573;BME280;47465;43.094;12.434;2023-03-15T08:57:22;97869.34;;;12.05;67.96
61573;BME280;47465;43.094;12.434;2023-03-15T08:59:50;97879.66;;;11.94;68.86
61573;BME280;47465;43.094;12.434;2023-03-15T09:02:17;97874.94;;;11.80;70.71
61573;BME280;47465;43.094;12.434;2023-03-15T09:04:43;97892.75;;;11.80;68.51
61573;BME280;47465;43.094;12.434;2023-03-15T09:07:09;97894.88;;;11.71;69.15
61573;BME280;47465;43.094;12.434;2023-03-15T09:09:38;97877.16;;;11.31;69.53
61573;BME280;47465;43.094;12.434;2023-03-15T09:12:04;97892.59;;;11.23;70.87
61573;BME280;47465;43.094;12.434;2023-03-15T09:14:30;97912.41;;;11.57;73.36
61573;BME280;47465;43.094;12.434;2023-03-15T09:16:55;97893.41;;;11.45;70.67
61573;BME280;47465;43.094;12.434;2023-03-15T09:19:23;97907.41;;;11.69;71.81
61573;BME280;47465;43.094;12.434;2023-03-15T09:21:49;97901.84;;;11.74;70.89
61573;BME280;47465;43.094;12.434;2023-03-15T09:24:15;97909.31;;;11.86;70.59
61573;BME280;47465;43.094;12.434;2023-03-15T09:26:41;97934.97;;;11.89;70.30
61573;BME280;47465;43.094;12.434;2023-03-15T09:29:07;97912.00;;;11.66;69.69
61573;BME280;47465;43.094;12.434;2023-03-15T09:31:34;97910.50;;;11.79;71.54
61573;BME280;47465;43.094;12.434;2023-03-15T09:34:00;97939.16;;;11.74;72.82
61573;BME280;47465;43.094;12.434;2023-03-15T09:36:27;97931.09;;;11.55;71.35
61573;BME280;47465;43.094;12.434;2023-03-15T09:38:53;97941.91;;;11.31;75.45
61573;BME280;47465;43.094;12.434;2023-03-15T09:41:31;97947.47;;;11.25;75.31
61573;BME280;47465;43.094;12.434;2023-03-15T09:44:00;97957.81;;;11.33;75.42
61573;BME280;47465;43.094;12.434;2023-03-15T09:46:32;97953.22;;;11.78;74.40
61573;BME280;47465;43.094;12.434;2023-03-15T09:49:00;97950.84;;;11.90;74.37
61573;BME280;47465;43.094;12.434;2023-03-15T09:51:34;97960.97;;;11.82;75.87
61573;BME280;47465;43.094;12.434;2023-03-15T09:54:02;97968.75;;;11.87;72.10
61573;BME280;47465;43.094;12.434;2023-03-15T09:56:31;97981.91;;;11.71;72.14
61573;BME280;47465;43.094;12.434;2023-03-15T09:58:58;97970.97;;;11.98;73.53
61573;BME280;47465;43.094;12.434;2023-03-15T10:01:28;97985.50;;;11.70;72.35
61573;BME280;47465;43.094;12.434;2023-03-15T10:03:54;97987.69;;;11.81;71.10
61573;BME280;47465;43.094;12.434;2023-03-15T10:06:20;97993.75;;;12.05;73.70
61573;BME280;47465;43.094;12.434;2023-03-15T10:08:51;97998.53;;;11.76;73.25
61573;BME280;47465;43.094;12.434;2023-03-15T10:11:19;97987.09;;;11.95;73.88
61573;BME280;47465;43.094;12.434;2023-03-15T10:13:51;97993.00;;;11.81;75.43
61573;BME280;47465;43.094;12.434;2023-03-15T10:16:22;97992.28;;;11.98;73.39
61573;BME280;47465;43.094;12.434;2023-03-15T10:18:57;97996.75;;;11.77;72.46
61573;BME280;47465;43.094;12.434;2023-03-15T10:21:28;97997.59;;;12.37;67.94
61573;BME280;47465;43.094;12.434;2023-03-15T10:23:58;97988.34;;;12.44;67.64
61573;BME280;47465;43.094;12.434;2023-03-15T10:26:26;98000.84;;;12.63;68.77
61573;BME280;47465;43.094;12.434;2023-03-15T10:28:53;98014.47;;;11.98;68.82
61573;BME280;47465;43.094;12.434;2023-03-15T10:31:20;98010.53;;;11.66;68.00
61573;BME280;47465;43.094;12.434;2023-03-15T10:33:48;98017.03;;;11.79;69.93
61573;BME280;47465;43.094;12.434;2023-03-15T10:36:14;98024.13;;;11.17;72.02
61573;BME280;47465;43.094;12.434;2023-03-15T10:38:41;98019.31;;;11.47;71.96
61573;BME280;47465;43.094;12.434;2023-03-15T10:41:08;98020.44;;;11.42;72.46
61573;BME280;47465;43.094;12.434;2023-03-15T10:43:35;98022.38;;;11.79;70.52
61573;BME280;47465;43.094;12.434;2023-03-15T10:46:02;98012.53;;;12.21;69.65
61573;BME280;47465;43.094;12.434;2023-03-15T10:48:28;98010.19;;;12.52;69.96
61573;BME280;47465;43.094;12.434;2023-03-15T10:50:55;98021.50;;;12.58;66.62
61573;BME280;47465;43.094;12.434;2023-03-15T10:53:21;98019.53;;;12.04;66.76
61573;BME280;47465;43.094;12.434;2023-03-15T10:55:56;98035.22;;;11.06;71.30
61573;BME280;47465;43.094;12.434;2023-03-15T10:58:25;98039.03;;;10.99;73.35
61573;BME280;47465;43.094;12.434;2023-03-15T11:00:52;98045.72;;;10.87;77.33
61573;BME280;47465;43.094;12.434;2023-03-15T11:03:23;98051.44;;;10.78;79.94
61573;BME280;47465;43.094;12.434;2023-03-15T11:05:49;98053.38;;;10.73;80.22
61573;BME280;47465;43.094;12.434;2023-03-15T11:08:16;98054.09;;;10.78;80.97
61573;BME280;47465;43.094;12.434;2023-03-15T11:10:43;98054.47;;;10.45;81.79
61573;BME280;47465;43.094;12.434;2023-03-15T11:13:10;98062.03;;;10.33;84.75
61573;BME280;47465;43.094;12.434;2023-03-15T11:15:38;98058.78;;;10.48;83.06
61573;BME280;47465;43.094;12.434;2023-03-15T11:18:03;98052.41;;;10.30;83.18
61573;BME280;47465;43.094;12.434;2023-03-15T11:20:30;98063.47;;;10.41;83.60
61573;BME280;47465;43.094;12.434;2023-03-15T11:22:56;98062.06;;;10.78;80.03
61573;BME280;47465;43.094;12.434;2023-03-15T11:25:23;98066.19;;;11.29;83.32
61573;BME280;47465;43.094;12.434;2023-03-15T11:27:50;98063.09;;;11.40;78.29
61573;BME280;47465;43.094;12.434;2023-03-15T11:30:27;98063.91;;;11.20;77.00
61573;BME280;47465;43.094;12.434;2023-03-15T11:32:55;98074.56;;;11.20;75.16
61573;BME280;47465;43.094;12.434;2023-03-15T11:35:23;98071.44;;;11.53;75.65
61573;BME280;47465;43.094;12.434;2023-03-15T11:37:51;98068.66;;;11.77;74.16
61573;BME280;47465;43.094;12.434;2023-03-15T11:40:19;98054.22;;;12.03;71.79
61573;BME280;47465;43.094;12.434;2023-03-15T11:42:47;98062.03;;;11.44;71.17
61573;BME280;47465;43.094;12.434;2023-03-15T11:45:16;98066.31;;;11.48;70.49
61573;BME280;47465;43.094;12.434;2023-03-15T11:47:43;98066.09;;;11.53;74.19
61573;BME280;47465;43.094;12.434;2023-03-15T11:50:14;98076.34;;;11.84;71.45
61573;BME280;47465;43.094;12.434;2023-03-15T11:52:40;98068.09;;;11.48;72.73
61573;BME280;47465;43.094;12.434;2023-03-15T11:55:13;98069.56;;;11.55;71.27
61573;BME280;47465;43.094;12.434;2023-03-15T11:57:41;98079.66;;;11.69;74.27
61573;BME280;47465;43.094;12.434;2023-03-15T12:00:20;98074.97;;;11.31;73.52
61573;BME280;47465;43.094;12.434;2023-03-15T12:02:52;98079.50;;;11.29;75.34
61573;BME280;47465;43.094;12.434;2023-03-15T12:08:16;98083.13;;;10.61;74.73
61573;BME280;47465;43.094;12.434;2023-03-15T12:10:43;98070.97;;;10.54;75.70
61573;BME280;47465;43.094;12.434;2023-03-15T12:13:16;98080.88;;;10.50;76.76
61573;BME280;47465;43.094;12.434;2023-03-15T12:15:46;98096.00;;;10.23;76.50
61573;BME280;47465;43.094;12.434;2023-03-15T12:18:19;98087.81;;;10.54;75.67
61573;BME280;47465;43.094;12.434;2023-03-15T12:20:48;98089.38;;;10.82;75.02
61573;BME280;47465;43.094;12.434;2023-03-15T12:23:21;98089.16;;;10.88;74.50
61573;BME280;47465;43.094;12.434;2023-03-15T12:25:54;98081.88;;;11.15;74.20
61573;BME280;47465;43.094;12.434;2023-03-15T12:28:21;98087.00;;;11.20;71.60
61573;BME280;47465;43.094;12.434;2023-03-15T12:30:51;98093.13;;;11.00;68.89
61573;BME280;47465;43.094;12.434;2023-03-15T12:33:18;98094.25;;;11.16;70.21
61573;BME280;47465;43.094;12.434;2023-03-15T12:35:45;98096.31;;;10.86;68.23
61573;BME280;47465;43.094;12.434;2023-03-15T12:38:12;98097.03;;;11.13;67.07
61573;BME280;47465;43.094;12.434;2023-03-15T12:40:48;98095.13;;;11.39;67.34
61573;BME280;47465;43.094;12.434;2023-03-15T12:43:14;98089.78;;;11.17;67.13
61573;BME280;47465;43.094;12.434;2023-03-15T12:45:41;98086.69;;;11.27;67.86
61573;BME280;47465;43.094;12.434;2023-03-15T12:48:20;98093.25;;;10.97;69.29
61573;BME280;47465;43.094;12.434;2023-03-15T12:50:51;98087.00;;;11.20;68.80
61573;BME280;47465;43.094;12.434;2023-03-15T12:53:18;98092.19;;;11.01;69.73